Aérodrome :
LOGIN :

S'inscrire | Disclaimer

   EN    FR    IT 

 










Légende :    VFR   VFR Marginal   IFR   IFR Intensif   IFR Très Intensif
Visi : 
Plafond : 
>= 8 km
>= 3000ft
5 à 8 km
1000 à 3000 ft
1500m à 5 km
500 à 1000 ft
800 à 1500m
200 à 500 ft
< 800m
< 200 ft
Symboles :   Orages  Brouillard  Fortes neiges  Fortes précipitations  Vent > 20 kt
SIGMETs :   Divers  Orages  Givrage  Turbulence  Onde Orograph.  Cendres Volcan.






- Altitude de l'aérodrome : 290 ft
- Code IATA : LAI


LFRO - Lannion

DERNIER METAR :
  • 201000Z AUTO 20016KT 9999 BKN018 OVC043 11/08 Q1015

METARs EXPIRÉS :
  • 200930Z AUTO 20017KT 170V230 9999 BKN018 BKN043 OVC050 11/08 Q1015
  • 200900Z AUTO 21018KT 9999 SCT020 BKN047 OVC078 10/08 Q1015
  • 200830Z AUTO 20017KT 9999 FEW018 SCT078 10/07 Q1015
  • 200800Z AUTO 20015KT 170V230 9999 BKN018 BKN023 09/07 Q1015
  • 200730Z AUTO 19014KT 150V220 9999 FEW017 BKN047 09/07 Q1015

Prévision TAF périmée.



MET'MAP, la Météo Aéronautique d'un coup d'oeil ! - Copyright ORBIFLY Décembre 2007 - Disclaimer

ORBIFLY MET'MAP TEAM :

Programmation & Développement : Alexandra Zaïnal
Sur une idée originale de : Baudouin d'Aumeries
Assistance à la programmation : Marc-Olivier Méhu
Soutien technique & logistique : Manuel Goepfert

Contact : metmap@orbifly.com




SOURCES & CREDITS :

   NOAA